createdAt,value
2019-02-02T00:00:48.669Z,98998.37
2019-02-02T00:03:20.352Z,98992.26
2019-02-02T00:05:52.142Z,98989.77
2019-02-02T00:08:23.831Z,98978.06
2019-02-02T00:10:55.514Z,98982.82
2019-02-02T00:13:27.187Z,98977.88
2019-02-02T00:15:59.752Z,98983.41
2019-02-02T00:18:31.347Z,98981.30
2019-02-02T00:21:04.369Z,98974.17
2019-02-02T00:23:36.054Z,98980.56
2019-02-02T00:26:07.769Z,98974.36
2019-02-02T00:28:39.360Z,98975.31
2019-02-02T00:31:10.984Z,98981.41
2019-02-02T00:33:42.636Z,98979.45
2019-02-02T00:36:14.255Z,98990.55
2019-02-02T00:38:45.942Z,98981.84
2019-02-02T00:41:17.566Z,98975.97
2019-02-02T00:43:49.237Z,98979.42
2019-02-02T00:46:20.854Z,98979.80
2019-02-02T00:48:52.449Z,98968.42
2019-02-02T00:51:24.103Z,98969.25
2019-02-02T00:53:55.789Z,98967.92
2019-02-02T00:56:27.480Z,98970.38
2019-02-02T00:58:59.092Z,98958.97
2019-02-02T01:01:30.958Z,98957.73
2019-02-02T01:04:02.635Z,98953.41
2019-02-02T01:06:34.317Z,98957.52
2019-02-02T01:09:15.148Z,98961.51
2019-02-02T01:11:46.835Z,98951.63
2019-02-02T01:14:18.625Z,98945.57
2019-02-02T01:16:50.334Z,98947.59
2019-02-02T01:19:22.017Z,98946.05
2019-02-02T01:21:53.706Z,98946.30
2019-02-02T01:24:25.381Z,98948.64
2019-02-02T01:26:57.141Z,98947.70
2019-02-02T01:29:29.091Z,98952.41
2019-02-02T01:32:00.978Z,98945.78
2019-02-02T01:34:32.665Z,98943.05
2019-02-02T01:37:04.365Z,98937.97
2019-02-02T01:39:36.065Z,98935.31
2019-02-02T01:42:07.757Z,98924.83
2019-02-02T01:44:39.457Z,98918.27
2019-02-02T01:47:11.153Z,98916.83
2019-02-02T01:49:42.840Z,98916.03
2019-02-02T01:52:14.559Z,98905.34
2019-02-02T01:54:46.244Z,98899.70
2019-02-02T01:57:18.930Z,98892.78
2019-02-02T01:59:50.521Z,98893.52
2019-02-02T02:02:22.230Z,98882.73
2019-02-02T02:04:53.904Z,98887.22
2019-02-02T02:07:25.531Z,98880.44
2019-02-02T02:09:57.218Z,98886.58
2019-02-02T02:12:29.040Z,98878.66
2019-02-02T02:15:00.914Z,98882.37
2019-02-02T02:17:34.102Z,98881.54
2019-02-02T02:20:06.127Z,98878.66
2019-02-02T02:22:41.220Z,98881.79
2019-02-02T02:25:13.169Z,98879.99
2019-02-02T02:27:44.958Z,98875.78
2019-02-02T02:30:21.799Z,98882.42
2019-02-02T02:32:54.489Z,98881.93
2019-02-02T02:35:26.163Z,98879.99
2019-02-02T02:37:57.816Z,98873.36
2019-02-02T02:40:29.582Z,98864.19
2019-02-02T02:43:01.254Z,98864.92
2019-02-02T02:45:32.953Z,98862.63
2019-02-02T02:48:04.694Z,98860.80
2019-02-02T02:50:37.374Z,98859.10
2019-02-02T02:53:09.077Z,98863.00
2019-02-02T02:55:40.746Z,98858.15
2019-02-02T02:58:12.443Z,98850.06
2019-02-02T03:00:44.120Z,98844.52
2019-02-02T03:03:15.824Z,98852.72
2019-02-02T03:05:47.522Z,98853.46
2019-02-02T03:08:19.138Z,98850.57
2019-02-02T03:10:50.833Z,98846.08
2019-02-02T03:13:22.519Z,98841.27
2019-02-02T03:15:54.180Z,98832.92
2019-02-02T03:18:25.820Z,98827.70
2019-02-02T03:20:57.820Z,98822.38
2019-02-02T03:23:30.522Z,98821.55
2019-02-02T03:26:02.172Z,98822.25
2019-02-02T03:28:34.096Z,98821.55
2019-02-02T03:31:06.042Z,98831.82
2019-02-02T03:33:37.822Z,98841.86
2019-02-02T03:36:09.443Z,98841.13
2019-02-02T03:38:41.182Z,98840.54
2019-02-02T03:41:12.867Z,98844.29
2019-02-02T03:43:44.590Z,98846.72
2019-02-02T03:46:16.264Z,98852.50
2019-02-02T03:48:47.949Z,98853.50
2019-02-02T03:51:19.656Z,98847.91
2019-02-02T03:53:51.281Z,98856.72
2019-02-02T03:56:22.947Z,98845.25
2019-02-02T03:59:06.231Z,98833.28
2019-02-02T04:01:30.155Z,98830.99
2019-02-02T04:04:01.750Z,98823.02
2019-02-02T04:06:33.422Z,98813.30
2019-02-02T04:09:07.490Z,98823.71
2019-02-02T04:11:43.298Z,98815.50
2019-02-02T04:14:13.434Z,98817.56
2019-02-02T04:16:45.132Z,98815.40
2019-02-02T04:19:17.719Z,98815.62
2019-02-02T04:21:49.391Z,98826.04
2019-02-02T04:24:21.010Z,98826.03
2019-02-02T04:26:52.776Z,98823.02
2019-02-02T04:29:24.466Z,98814.80
2019-02-02T04:31:56.074Z,98813.80
2019-02-02T04:34:27.842Z,98809.71
2019-02-02T04:36:59.545Z,98797.98
2019-02-02T04:39:31.294Z,98793.62
2019-02-02T04:42:02.968Z,98799.34
2019-02-02T04:44:34.652Z,98801.89
2019-02-02T04:47:06.308Z,98792.19
2019-02-02T04:49:38.120Z,98780.24
2019-02-02T04:52:09.898Z,98788.69
2019-02-02T04:54:41.517Z,98780.58
2019-02-02T04:57:13.115Z,98782.88
2019-02-02T04:59:44.813Z,98770.80
2019-02-02T05:02:16.503Z,98777.82
2019-02-02T05:04:48.226Z,98775.52
2019-02-02T05:07:19.823Z,98782.41
2019-02-02T05:09:51.506Z,98786.27
2019-02-02T05:12:23.216Z,98783.60
2019-02-02T05:14:54.903Z,98779.63
2019-02-02T05:17:26.508Z,98786.16
2019-02-02T05:19:58.241Z,98793.67
2019-02-02T05:22:30.237Z,98788.80
2019-02-02T05:25:02.145Z,98777.08
2019-02-02T05:27:34.084Z,98764.02
2019-02-02T05:30:08.085Z,98764.73
2019-02-02T05:32:39.753Z,98760.27
2019-02-02T05:35:11.373Z,98757.12
2019-02-02T05:37:43.136Z,98764.11
2019-02-02T05:40:15.937Z,98772.45
2019-02-02T05:42:47.622Z,98771.75
2019-02-02T05:45:20.169Z,98773.55
2019-02-02T05:47:52.414Z,98775.70
2019-02-02T05:50:24.214Z,98776.20
2019-02-02T05:52:55.834Z,98766.30
2019-02-02T05:55:27.447Z,98772.81
2019-02-02T05:57:59.050Z,98772.09
2019-02-02T06:00:43.807Z,98794.22
2019-02-02T06:03:15.577Z,98798.81
2019-02-02T06:05:47.272Z,98796.52
2019-02-02T06:08:18.878Z,98803.53
2019-02-02T06:10:50.553Z,98796.52
2019-02-02T06:13:22.216Z,98801.60
2019-02-02T06:15:53.810Z,98809.81
2019-02-02T06:18:25.431Z,98807.66
2019-02-02T06:20:57.279Z,98806.55
2019-02-02T06:23:29.027Z,98802.34
2019-02-02T06:26:01.074Z,98808.58
2019-02-02T06:28:32.681Z,98806.52
2019-02-02T06:31:04.381Z,98801.56
2019-02-02T06:33:36.004Z,98804.45
2019-02-02T06:36:07.704Z,98801.66
2019-02-02T06:38:39.378Z,98801.19
2019-02-02T06:41:11.088Z,98793.45
2019-02-02T06:43:42.764Z,98794.64
2019-02-02T06:46:14.387Z,98791.11
2019-02-02T06:48:46.072Z,98790.42
2019-02-02T06:51:17.762Z,98789.09
2019-02-02T06:53:49.500Z,98791.02
2019-02-02T06:56:21.168Z,98795.38
2019-02-02T06:58:52.834Z,98796.94
2019-02-02T07:01:24.510Z,98798.64
2019-02-02T07:03:56.118Z,98800.83
2019-02-02T07:06:27.931Z,98807.34
2019-02-02T07:08:59.623Z,98811.92
2019-02-02T07:11:31.248Z,98814.22
2019-02-02T07:14:02.862Z,98811.70
2019-02-02T07:16:34.472Z,98813.89
2019-02-02T07:19:06.137Z,98810.04
2019-02-02T07:21:37.759Z,98813.20
2019-02-02T07:24:10.089Z,98813.20
2019-02-02T07:26:42.666Z,98803.30
2019-02-02T07:29:14.352Z,98814.07
2019-02-02T07:31:46.094Z,98824.34
2019-02-02T07:34:18.279Z,98820.38
2019-02-02T07:36:50.278Z,98827.86
2019-02-02T07:39:21.985Z,98825.09
2019-02-02T07:41:55.699Z,98832.84
2019-02-02T07:44:28.600Z,98844.34
2019-02-02T07:47:00.608Z,98847.38
2019-02-02T07:49:32.394Z,98844.47
2019-02-02T07:52:04.287Z,98840.98
2019-02-02T07:54:35.948Z,98840.83
2019-02-02T07:57:07.580Z,98842.66
2019-02-02T07:59:39.742Z,98840.61
2019-02-02T08:02:11.455Z,98843.50
2019-02-02T08:04:43.186Z,98844.85
2019-02-02T08:07:14.985Z,98847.27
2019-02-02T08:09:46.670Z,98834.07
2019-02-02T08:12:19.579Z,98839.02
2019-02-02T08:14:51.569Z,98846.52
2019-02-02T08:17:23.379Z,98846.75
2019-02-02T08:19:55.079Z,98845.08
2019-02-02T08:22:26.771Z,98840.58
2019-02-02T08:24:58.606Z,98838.05
2019-02-02T08:27:30.352Z,98832.08
2019-02-02T08:30:02.297Z,98839.47
2019-02-02T08:32:34.227Z,98842.37
2019-02-02T08:35:06.126Z,98835.48
2019-02-02T08:37:37.827Z,98848.78
2019-02-02T08:40:10.923Z,98847.92
2019-02-02T08:42:42.666Z,98856.48
2019-02-02T08:45:15.373Z,98860.68
2019-02-02T08:47:47.075Z,98857.87
2019-02-02T08:50:27.478Z,98846.64
2019-02-02T08:52:59.389Z,98846.53
2019-02-02T08:55:31.494Z,98860.19
2019-02-02T08:58:07.586Z,98858.45
2019-02-02T09:00:39.547Z,98864.83
2019-02-02T09:03:11.253Z,98862.02
2019-02-02T09:05:42.907Z,98863.96
2019-02-02T09:08:14.513Z,98864.21
2019-02-02T09:10:46.146Z,98858.58
2019-02-02T09:13:18.018Z,98858.43
2019-02-02T09:15:49.711Z,98866.85
2019-02-02T09:18:21.358Z,98871.67
2019-02-02T09:20:52.959Z,98869.72
2019-02-02T09:23:24.644Z,98873.98
2019-02-02T09:25:56.247Z,98887.13
2019-02-02T09:28:28.109Z,98883.55
2019-02-02T09:30:59.803Z,98874.92
2019-02-02T09:33:31.725Z,98874.49
2019-02-02T09:36:03.317Z,98876.69
2019-02-02T09:38:35.164Z,98879.16
2019-02-02T09:41:10.371Z,98873.17
2019-02-02T09:43:44.311Z,98876.44
2019-02-02T09:46:16.035Z,98885.72
2019-02-02T09:48:48.472Z,98885.28
2019-02-02T09:51:20.082Z,98892.27
2019-02-02T09:53:53.796Z,98883.01
2019-02-02T09:56:25.555Z,98882.41
2019-02-02T09:58:59.414Z,98884.81
2019-02-02T10:01:31.886Z,98878.52
2019-02-02T10:04:04.036Z,98875.53
2019-02-02T10:06:36.498Z,98878.49
2019-02-02T10:09:09.909Z,98890.22
2019-02-02T10:11:42.282Z,98904.01
2019-02-02T10:14:14.143Z,98898.56
2019-02-02T10:16:45.860Z,98891.76
2019-02-02T10:19:17.993Z,98889.52
2019-02-02T10:21:49.937Z,98890.64
2019-02-02T10:24:22.047Z,98901.91
2019-02-02T10:26:53.799Z,98899.98
2019-02-02T10:29:25.436Z,98900.02
2019-02-02T10:31:57.030Z,98898.78
2019-02-02T10:34:29.147Z,98883.33
2019-02-02T10:37:00.987Z,98888.83
2019-02-02T10:39:32.786Z,98904.50
2019-02-02T10:42:04.379Z,98915.89
2019-02-02T10:44:36.025Z,98938.13
2019-02-02T10:47:07.710Z,98949.28
2019-02-02T10:49:39.415Z,98939.61
2019-02-02T10:52:11.078Z,98940.16
2019-02-02T10:54:43.763Z,98942.60
2019-02-02T10:57:15.372Z,98943.66
2019-02-02T10:59:49.007Z,98945.10
2019-02-02T11:02:20.295Z,98944.13
2019-02-02T11:04:53.479Z,98926.69
2019-02-02T11:07:25.470Z,98933.16
2019-02-02T11:09:57.054Z,98931.03
2019-02-02T11:12:30.603Z,98924.47
2019-02-02T11:15:05.683Z,98919.91
2019-02-02T11:17:38.992Z,98908.44
2019-02-02T11:20:13.910Z,98906.53
2019-02-02T11:22:46.078Z,98913.66
2019-02-02T11:25:18.064Z,98907.00
2019-02-02T11:27:50.101Z,98903.84
2019-02-02T11:30:21.991Z,98892.66
2019-02-02T11:32:54.452Z,98889.91
2019-02-02T11:35:26.388Z,98898.75
2019-02-02T11:37:58.071Z,98902.92
2019-02-02T11:40:32.710Z,98899.16
2019-02-02T11:43:05.077Z,98914.11
2019-02-02T11:45:37.294Z,98926.31
2019-02-02T11:48:09.331Z,98940.75
2019-02-02T11:50:41.181Z,98927.45
2019-02-02T11:53:13.220Z,98943.58
2019-02-02T11:55:45.132Z,98945.63
2019-02-02T11:58:16.938Z,98932.28
2019-02-02T12:00:48.815Z,98922.42
2019-02-02T12:03:21.974Z,98917.53
2019-02-02T12:05:54.330Z,98926.48
2019-02-02T12:08:26.163Z,98920.13
2019-02-02T12:10:58.920Z,98926.40
2019-02-02T12:13:30.800Z,98912.91
2019-02-02T12:16:02.977Z,98905.23
2019-02-02T12:18:34.982Z,98896.47
2019-02-02T12:21:06.831Z,98890.29
2019-02-02T12:23:38.444Z,98901.72
2019-02-02T12:26:10.068Z,98903.49
2019-02-02T12:28:41.673Z,98895.30
2019-02-02T12:31:13.357Z,98898.78
2019-02-02T12:33:44.969Z,98893.76
2019-02-02T12:36:16.590Z,98896.66
2019-02-02T12:38:48.232Z,98909.21
2019-02-02T12:41:19.945Z,98897.77
2019-02-02T12:43:51.559Z,98884.25
2019-02-02T12:46:23.244Z,98874.30
2019-02-02T12:48:54.853Z,98885.35
2019-02-02T12:51:26.568Z,98891.23
2019-02-02T12:53:58.259Z,98898.55
2019-02-02T12:56:29.998Z,98900.20
2019-02-02T12:59:01.862Z,98899.73
2019-02-02T13:01:34.935Z,98896.22
2019-02-02T13:04:08.825Z,98901.38
2019-02-02T13:06:41.838Z,98908.66
2019-02-02T13:09:13.674Z,98896.54
2019-02-02T13:11:45.595Z,98900.16
2019-02-02T13:14:17.494Z,98907.93
2019-02-02T13:16:50.163Z,98903.55
2019-02-02T13:19:22.428Z,98893.70
2019-02-02T13:21:54.260Z,98890.33
2019-02-02T13:24:25.970Z,98892.34
2019-02-02T13:26:57.756Z,98911.81
2019-02-02T13:29:29.448Z,98932.92
2019-02-02T13:32:01.148Z,98937.32
2019-02-02T13:34:33.364Z,98930.73
2019-02-02T13:37:06.566Z,98937.09
2019-02-02T13:39:39.306Z,98952.19
2019-02-02T13:42:11.587Z,98955.92
2019-02-02T13:44:43.566Z,98942.20
2019-02-02T13:47:15.302Z,98949.33
2019-02-02T13:49:47.136Z,98956.69
2019-02-02T13:52:19.167Z,98956.04
2019-02-02T13:54:50.968Z,98950.84
2019-02-02T13:57:22.617Z,98945.08
2019-02-02T13:59:54.420Z,98948.40
2019-02-02T14:02:26.069Z,98948.63
2019-02-02T14:04:57.930Z,98958.47
2019-02-02T14:07:30.366Z,98948.13
2019-02-02T14:10:02.333Z,98944.59
2019-02-02T14:12:35.207Z,98961.09
2019-02-02T14:15:07.739Z,98957.52
2019-02-02T14:17:39.670Z,98951.65
2019-02-02T14:20:12.614Z,98962.18
2019-02-02T14:22:44.453Z,98959.84
2019-02-02T14:25:16.191Z,98942.20
2019-02-02T14:27:49.573Z,98949.89
2019-02-02T14:30:23.724Z,98960.71
2019-02-02T14:32:55.757Z,98961.00
2019-02-02T14:35:29.452Z,98975.48
2019-02-02T14:38:01.574Z,98976.44
2019-02-02T14:40:33.710Z,98974.30
2019-02-02T14:43:06.785Z,98956.53
2019-02-02T14:45:38.616Z,98964.66
2019-02-02T14:48:10.314Z,98956.12
2019-02-02T14:50:43.550Z,98961.17
2019-02-02T14:53:16.774Z,98960.11
2019-02-02T14:55:49.115Z,98965.09
2019-02-02T14:58:21.287Z,98969.48
2019-02-02T15:00:54.101Z,98976.97
2019-02-02T15:03:26.563Z,98981.56
2019-02-02T15:05:58.874Z,98999.80
2019-02-02T15:08:30.588Z,99001.48
2019-02-02T15:11:02.382Z,99003.19
2019-02-02T15:13:34.147Z,99001.30
2019-02-02T15:16:05.850Z,99013.73
2019-02-02T15:18:37.796Z,99023.37
2019-02-02T15:21:10.927Z,99030.85
2019-02-02T15:23:45.404Z,99026.48
2019-02-02T15:26:16.423Z,99037.19
2019-02-02T15:28:48.168Z,99039.95
2019-02-02T15:31:19.901Z,99036.90
2019-02-02T15:33:52.057Z,99045.53
2019-02-02T15:36:23.694Z,99053.36
2019-02-02T15:38:55.412Z,99059.22
2019-02-02T15:41:27.022Z,99060.25
2019-02-02T15:43:59.193Z,99059.68
2019-02-02T15:46:30.916Z,99068.53
2019-02-02T15:49:02.779Z,99078.40
2019-02-02T15:51:40.287Z,99079.39
2019-02-02T15:54:10.627Z,99085.30
2019-02-02T15:56:44.053Z,99095.88
2019-02-02T15:59:17.394Z,99104.72
2019-02-02T16:01:52.208Z,99121.73
2019-02-02T16:04:24.683Z,99119.95
2019-02-02T16:06:57.099Z,99116.92
2019-02-02T16:09:29.321Z,99118.58
2019-02-02T16:12:01.373Z,99121.47
2019-02-02T16:14:33.485Z,99118.30
2019-02-02T16:17:05.353Z,99110.28
2019-02-02T16:19:37.166Z,99123.31
2019-02-02T16:22:08.802Z,99130.84
2019-02-02T16:24:42.474Z,99139.22
2019-02-02T16:27:14.691Z,99142.73
2019-02-02T16:29:46.944Z,99151.73
2019-02-02T16:32:19.954Z,99159.25
2019-02-02T16:34:51.801Z,99161.18
2019-02-02T16:37:23.394Z,99166.63
2019-02-02T16:39:55.122Z,99158.00
2019-02-02T16:42:26.756Z,99167.63
2019-02-02T16:44:58.454Z,99168.86
2019-02-02T16:47:30.308Z,99181.00
2019-02-02T16:50:02.240Z,99191.92
2019-02-02T16:52:33.949Z,99198.84
2019-02-02T16:55:06.639Z,99203.23
2019-02-02T16:57:38.328Z,99206.16
2019-02-02T17:00:16.517Z,99226.28
2019-02-02T17:02:48.206Z,99227.47
2019-02-02T17:05:19.923Z,99240.07
2019-02-02T17:07:51.688Z,99243.44
2019-02-02T17:10:26.679Z,99237.77
2019-02-02T17:13:15.381Z,99244.03
2019-02-02T17:15:47.179Z,99237.47
2019-02-02T17:18:19.760Z,99256.54
2019-02-02T17:20:52.673Z,99271.22
2019-02-02T17:23:25.432Z,99290.25
2019-02-02T17:25:59.458Z,99301.80
2019-02-02T17:28:31.556Z,99315.45
2019-02-02T17:31:04.237Z,99326.68
2019-02-02T17:33:37.037Z,99310.74
2019-02-02T17:36:12.182Z,99344.55
2019-02-02T17:38:44.828Z,99334.45
2019-02-02T17:41:17.407Z,99329.84
2019-02-02T17:43:49.449Z,99333.86
2019-02-02T17:46:21.708Z,99335.69
2019-02-02T17:48:53.497Z,99338.42
2019-02-02T17:51:27.190Z,99335.54
2019-02-02T17:53:58.896Z,99336.17
2019-02-02T17:56:30.633Z,99335.42
2019-02-02T17:59:02.456Z,99332.91
2019-02-02T18:01:34.267Z,99322.84
2019-02-02T18:04:09.492Z,99328.42
2019-02-02T18:06:43.459Z,99324.06
2019-02-02T18:09:17.575Z,99326.70
2019-02-02T18:11:51.852Z,99329.23
2019-02-02T18:14:27.438Z,99328.23
2019-02-02T18:17:00.361Z,99328.00
2019-02-02T18:19:32.546Z,99329.59
2019-02-02T18:22:04.364Z,99341.36
2019-02-02T18:24:36.786Z,99348.01
2019-02-02T18:27:10.168Z,99356.41
2019-02-02T18:29:42.259Z,99375.15
2019-02-02T18:32:14.021Z,99386.03
2019-02-02T18:34:51.142Z,99394.50
2019-02-02T18:37:19.118Z,99404.16
2019-02-02T18:39:50.902Z,99409.77
2019-02-02T18:42:22.600Z,99397.30
2019-02-02T18:44:54.432Z,99410.80
2019-02-02T18:47:26.174Z,99420.09
2019-02-02T18:49:57.853Z,99424.53
2019-02-02T18:52:29.465Z,99429.60
2019-02-02T18:55:01.132Z,99446.48
2019-02-02T18:57:32.890Z,99440.42
2019-02-02T19:00:06.242Z,99445.16
2019-02-02T19:02:41.121Z,99459.41
2019-02-02T19:05:13.140Z,99457.34
2019-02-02T19:07:45.072Z,99463.80
2019-02-02T19:10:22.121Z,99467.79
2019-02-02T19:12:54.468Z,99463.91
2019-02-02T19:15:26.346Z,99466.75
2019-02-02T19:17:58.039Z,99473.59
2019-02-02T19:20:29.778Z,99475.11
2019-02-02T19:23:01.690Z,99489.92
2019-02-02T19:25:34.915Z,99498.28
2019-02-02T19:28:08.150Z,99498.54
2019-02-02T19:30:39.928Z,99484.19
2019-02-02T19:33:12.631Z,99485.23
2019-02-02T19:35:44.409Z,99483.71
2019-02-02T19:38:17.681Z,99487.20
2019-02-02T19:40:51.368Z,99496.58
2019-02-02T19:43:26.694Z,99522.61
2019-02-02T19:45:59.444Z,99518.60
2019-02-02T19:48:31.941Z,99534.75
2019-02-02T19:51:07.367Z,99532.46
2019-02-02T19:53:39.324Z,99534.56
2019-02-02T19:56:11.795Z,99539.69
2019-02-02T19:58:43.585Z,99552.05
2019-02-02T20:01:15.291Z,99558.61
2019-02-02T20:03:47.030Z,99566.20
2019-02-02T20:06:19.727Z,99566.22
2019-02-02T20:08:51.457Z,99572.79
2019-02-02T20:11:23.172Z,99583.80
2019-02-02T20:13:55.147Z,99593.11
2019-02-02T20:16:27.347Z,99590.91
2019-02-02T20:18:59.059Z,99583.61
2019-02-02T20:21:33.900Z,99582.20
2019-02-02T20:24:08.903Z,99589.87
2019-02-02T20:26:44.252Z,99592.42
2019-02-02T20:29:16.357Z,99586.08
2019-02-02T20:31:48.741Z,99593.56
2019-02-02T20:34:20.809Z,99589.58
2019-02-02T20:36:53.464Z,99596.14
2019-02-02T20:39:25.431Z,99596.25
2019-02-02T20:41:59.869Z,99603.55
2019-02-02T20:44:31.165Z,99613.80
2019-02-02T20:47:03.271Z,99620.27
2019-02-02T20:49:35.010Z,99624.05
2019-02-02T20:52:07.094Z,99621.02
2019-02-02T20:54:38.805Z,99631.77
2019-02-02T20:57:11.000Z,99632.70
2019-02-02T20:59:43.843Z,99628.52
2019-02-02T21:02:16.008Z,99633.65
2019-02-02T21:04:48.175Z,99637.14
2019-02-02T21:07:20.059Z,99637.44
2019-02-02T21:09:51.972Z,99645.41
2019-02-02T21:12:23.675Z,99648.52
2019-02-02T21:14:56.039Z,99654.11
2019-02-02T21:17:27.825Z,99661.45
2019-02-02T21:20:00.000Z,99667.22
2019-02-02T21:22:32.129Z,99663.92
2019-02-02T21:25:06.866Z,99671.02
2019-02-02T21:27:38.604Z,99673.02
2019-02-02T21:30:14.129Z,99673.22
2019-02-02T21:32:46.790Z,99679.56
2019-02-02T21:35:19.651Z,99682.78
2019-02-02T21:37:53.951Z,99695.30
2019-02-02T21:40:28.839Z,99706.31
2019-02-02T21:43:00.580Z,99710.22
2019-02-02T21:45:32.441Z,99708.14
2019-02-02T21:48:05.557Z,99711.30
2019-02-02T21:50:40.123Z,99708.91
2019-02-02T21:53:12.242Z,99711.70
2019-02-02T21:55:43.942Z,99720.52
2019-02-02T21:58:17.069Z,99733.84
2019-02-02T22:00:49.276Z,99731.33
2019-02-02T22:03:21.280Z,99737.83
2019-02-02T22:05:53.256Z,99737.51
2019-02-02T22:08:25.477Z,99737.51
2019-02-02T22:10:57.248Z,99747.65
2019-02-02T22:13:28.961Z,99747.02
2019-02-02T22:16:00.702Z,99752.89
2019-02-02T22:18:32.438Z,99763.31
2019-02-02T22:21:04.333Z,99764.08
2019-02-02T22:23:35.997Z,99762.92
2019-02-02T22:26:07.615Z,99773.17
2019-02-02T22:28:39.215Z,99772.22
2019-02-02T22:31:11.076Z,99770.42
2019-02-02T22:33:42.677Z,99768.50
2019-02-02T22:36:14.328Z,99771.88
2019-02-02T22:38:45.989Z,99782.31
2019-02-02T22:41:17.616Z,99786.29
2019-02-02T22:43:49.210Z,99799.36
2019-02-02T22:46:20.826Z,99800.73
2019-02-02T22:48:52.432Z,99815.05
2019-02-02T22:51:24.197Z,99819.65
2019-02-02T22:53:56.073Z,99822.52
2019-02-02T22:56:27.701Z,99830.40
2019-02-02T22:58:59.363Z,99825.91
2019-02-02T23:01:40.284Z,99822.09
2019-02-02T23:04:55.369Z,99817.55
2019-02-02T23:07:44.332Z,99831.45
2019-02-02T23:11:02.608Z,99840.35
2019-02-02T23:14:25.370Z,99830.67
2019-02-02T23:16:57.033Z,99823.63
2019-02-02T23:19:28.703Z,99832.83
2019-02-02T23:22:00.577Z,99833.87
2019-02-02T23:24:32.538Z,99842.40
2019-02-02T23:27:04.385Z,99836.98
2019-02-02T23:29:36.969Z,99829.57
2019-02-02T23:32:09.444Z,99835.03
2019-02-02T23:34:41.118Z,99834.50
2019-02-02T23:37:12.773Z,99832.38
2019-02-02T23:39:44.380Z,99829.62
2019-02-02T23:42:16.038Z,99832.89
2019-02-02T23:44:47.627Z,99833.44
2019-02-02T23:47:19.222Z,99821.05
2019-02-02T23:49:50.894Z,99824.82
2019-02-02T23:52:22.473Z,99834.33
2019-02-02T23:54:54.070Z,99842.52
2019-02-02T23:57:25.741Z,99853.14
2019-02-02T23:59:57.595Z,99863.65
